createdAt,value
2022-11-09T00:01:04.529Z,15.00
2022-11-09T00:03:31.962Z,15.00
2022-11-09T00:06:00.057Z,15.00
2022-11-09T00:08:27.279Z,15.00
2022-11-09T00:10:54.233Z,15.00
2022-11-09T00:13:22.475Z,15.00
2022-11-09T00:15:49.598Z,15.00
2022-11-09T00:18:16.636Z,15.00
2022-11-09T00:20:47.508Z,14.90
2022-11-09T00:23:16.358Z,15.00
2022-11-09T00:25:43.561Z,15.00
2022-11-09T00:28:17.874Z,15.00
2022-11-09T00:30:44.913Z,14.90
2022-11-09T00:33:12.411Z,14.90
2022-11-09T00:35:39.732Z,14.90
2022-11-09T00:38:06.715Z,15.00
2022-11-09T00:40:33.634Z,15.00
2022-11-09T00:43:00.666Z,15.10
2022-11-09T00:45:27.543Z,15.00
2022-11-09T00:47:54.416Z,15.10
2022-11-09T00:50:21.369Z,15.10
2022-11-09T00:52:48.643Z,15.10
2022-11-09T00:55:15.728Z,15.20
2022-11-09T00:57:42.636Z,15.20
2022-11-09T01:00:10.278Z,15.20
2022-11-09T01:02:37.151Z,15.10
2022-11-09T01:05:04.557Z,15.10
2022-11-09T01:07:31.898Z,15.10
2022-11-09T01:09:58.890Z,15.10
2022-11-09T01:12:25.874Z,15.10
2022-11-09T01:14:52.864Z,15.10
2022-11-09T01:17:20.029Z,15.10
2022-11-09T01:19:47.006Z,15.10
2022-11-09T01:22:13.921Z,15.10
2022-11-09T01:24:40.910Z,15.10
2022-11-09T01:27:08.027Z,15.00
2022-11-09T01:29:34.969Z,15.00
2022-11-09T01:32:03.633Z,15.10
2022-11-09T01:34:32.059Z,15.10
2022-11-09T01:36:59.309Z,15.10
2022-11-09T01:39:26.303Z,15.10
2022-11-09T01:41:53.263Z,15.00
2022-11-09T01:44:20.831Z,15.00
2022-11-09T01:47:23.629Z,15.00
2022-11-09T01:49:56.018Z,15.00
2022-11-09T01:52:35.239Z,15.00
2022-11-09T01:55:09.360Z,15.00
2022-11-09T01:57:47.667Z,15.00
2022-11-09T02:00:17.133Z,15.00
2022-11-09T02:02:49.532Z,15.00
2022-11-09T02:05:18.766Z,15.00
2022-11-09T02:07:45.962Z,15.00
2022-11-09T02:10:24.246Z,15.00
2022-11-09T02:12:53.503Z,15.00
2022-11-09T02:15:21.999Z,14.90
2022-11-09T02:17:52.547Z,14.80
2022-11-09T02:20:20.157Z,14.80
2022-11-09T02:22:47.159Z,14.70
2022-11-09T02:25:15.960Z,14.70
2022-11-09T02:27:44.190Z,14.80
2022-11-09T02:30:12.468Z,14.80
2022-11-09T02:32:39.523Z,14.80
2022-11-09T02:35:07.200Z,14.70
2022-11-09T02:37:48.746Z,14.60
2022-11-09T02:40:22.882Z,14.70
2022-11-09T02:42:49.929Z,14.70
2022-11-09T02:45:17.129Z,14.70
2022-11-09T02:47:44.030Z,14.70
2022-11-09T02:50:12.080Z,14.70
2022-11-09T02:52:39.105Z,14.70
2022-11-09T02:55:07.587Z,14.70
2022-11-09T02:57:34.458Z,14.70
2022-11-09T03:00:04.127Z,14.60
2022-11-09T03:02:32.419Z,14.60
2022-11-09T03:04:59.520Z,14.60
2022-11-09T03:07:27.234Z,14.50
2022-11-09T03:09:54.117Z,14.50
2022-11-09T03:12:30.195Z,14.50
2022-11-09T03:15:01.881Z,14.40
2022-11-09T03:17:29.276Z,14.40
2022-11-09T03:19:56.228Z,14.30
2022-11-09T03:22:23.203Z,14.30
2022-11-09T03:24:50.311Z,14.40
2022-11-09T03:27:17.471Z,14.40
2022-11-09T03:29:44.580Z,14.30
2022-11-09T03:32:11.599Z,14.30
2022-11-09T03:34:38.512Z,14.30
2022-11-09T03:37:05.429Z,14.30
2022-11-09T03:39:34.659Z,14.30
2022-11-09T03:42:01.911Z,14.30
2022-11-09T03:44:28.937Z,14.30
2022-11-09T03:46:55.830Z,14.30
2022-11-09T03:49:23.948Z,14.20
2022-11-09T03:51:51.789Z,14.20
2022-11-09T03:54:18.775Z,14.20
2022-11-09T03:56:45.892Z,14.20
2022-11-09T03:59:12.830Z,14.20
2022-11-09T04:01:39.924Z,14.20
2022-11-09T04:04:06.948Z,14.20
2022-11-09T04:06:33.989Z,14.20
2022-11-09T04:09:00.924Z,14.20
2022-11-09T04:11:27.867Z,14.30
2022-11-09T04:13:54.720Z,14.30
2022-11-09T04:16:21.655Z,14.30
2022-11-09T04:18:48.673Z,14.30
2022-11-09T04:21:18.119Z,14.40
2022-11-09T04:23:50.114Z,14.30
2022-11-09T04:26:17.056Z,14.30
2022-11-09T04:28:43.983Z,14.40
2022-11-09T04:31:10.941Z,14.40
2022-11-09T04:33:37.835Z,14.30
2022-11-09T04:36:05.466Z,14.30
2022-11-09T04:38:32.558Z,14.30
2022-11-09T04:41:04.659Z,14.30
2022-11-09T04:43:34.844Z,14.30
2022-11-09T04:46:03.561Z,14.40
2022-11-09T04:48:33.618Z,14.40
2022-11-09T04:51:10.631Z,14.40
2022-11-09T04:53:38.973Z,14.40
2022-11-09T04:56:07.738Z,14.40
2022-11-09T04:58:34.963Z,14.40
2022-11-09T05:01:06.440Z,14.40
2022-11-09T05:03:33.828Z,14.50
2022-11-09T05:06:00.743Z,14.40
2022-11-09T05:08:28.077Z,14.40
2022-11-09T05:10:58.382Z,14.40
2022-11-09T05:13:25.635Z,14.30
2022-11-09T05:15:52.594Z,14.20
2022-11-09T05:18:19.473Z,14.20
2022-11-09T05:20:46.497Z,14.10
2022-11-09T05:23:32.117Z,14.10
2022-11-09T05:25:59.028Z,14.10
2022-11-09T05:28:25.920Z,14.00
2022-11-09T05:30:52.966Z,14.10
2022-11-09T05:33:20.211Z,14.10
2022-11-09T05:35:47.310Z,14.10
2022-11-09T05:38:14.368Z,14.20
2022-11-09T05:40:41.364Z,14.20
2022-11-09T05:43:09.331Z,14.30
2022-11-09T05:45:42.431Z,14.30
2022-11-09T05:48:11.134Z,14.40
2022-11-09T05:50:39.075Z,14.30
2022-11-09T05:53:06.173Z,14.20
2022-11-09T05:55:33.753Z,14.20
2022-11-09T05:58:01.068Z,14.20
2022-11-09T06:00:28.507Z,14.20
2022-11-09T06:03:05.406Z,14.20
2022-11-09T06:05:37.150Z,14.00
2022-11-09T06:08:16.028Z,14.00
2022-11-09T06:10:43.432Z,14.00
2022-11-09T06:13:11.778Z,14.00
2022-11-09T06:15:38.694Z,13.90
2022-11-09T06:18:07.745Z,13.90
2022-11-09T06:20:35.262Z,13.90
2022-11-09T06:23:04.379Z,13.80
2022-11-09T06:25:32.737Z,13.80
2022-11-09T06:27:59.864Z,13.70
2022-11-09T06:30:26.801Z,13.80
2022-11-09T06:33:02.128Z,13.70
2022-11-09T06:35:31.451Z,13.60
2022-11-09T06:37:59.953Z,13.60
2022-11-09T06:40:28.137Z,13.50
2022-11-09T06:42:59.324Z,13.40
2022-11-09T06:45:27.673Z,13.30
2022-11-09T06:48:03.086Z,13.20
2022-11-09T06:50:33.729Z,13.20
2022-11-09T06:53:02.586Z,13.20
2022-11-09T06:55:30.728Z,13.10
2022-11-09T06:57:58.531Z,13.10
2022-11-09T07:00:26.966Z,13.00
2022-11-09T07:02:54.205Z,13.00
2022-11-09T07:05:22.720Z,13.00
2022-11-09T07:07:49.688Z,12.90
2022-11-09T07:10:16.961Z,12.90
2022-11-09T07:12:44.165Z,12.80
2022-11-09T07:15:12.329Z,12.80
2022-11-09T07:17:40.290Z,12.80
2022-11-09T07:20:09.332Z,12.90
2022-11-09T07:22:39.597Z,12.90
2022-11-09T07:25:11.685Z,12.90
2022-11-09T07:27:40.320Z,12.90
2022-11-09T07:30:08.327Z,13.00
2022-11-09T07:33:08.807Z,13.00
2022-11-09T07:35:27.168Z,13.00
2022-11-09T07:37:54.149Z,13.10
2022-11-09T07:40:21.292Z,13.10
2022-11-09T07:42:48.176Z,13.10
2022-11-09T07:45:15.282Z,13.10
2022-11-09T07:47:42.287Z,13.10
2022-11-09T07:50:09.765Z,13.20
2022-11-09T07:52:36.827Z,13.20
2022-11-09T07:55:04.157Z,13.20
2022-11-09T07:57:31.225Z,13.20
2022-11-09T07:59:59.307Z,13.20
2022-11-09T08:02:27.618Z,13.20
2022-11-09T08:04:54.685Z,13.20
2022-11-09T08:07:23.661Z,13.20
2022-11-09T08:09:50.576Z,13.30
2022-11-09T08:12:17.517Z,13.50
2022-11-09T08:14:44.485Z,13.60
2022-11-09T08:17:11.426Z,13.50
2022-11-09T08:19:38.417Z,13.50
2022-11-09T08:22:05.525Z,13.40
2022-11-09T08:24:32.624Z,13.30
2022-11-09T08:26:59.645Z,13.60
2022-11-09T08:29:26.569Z,14.20
2022-11-09T08:31:53.615Z,14.50
2022-11-09T08:34:20.721Z,14.90
2022-11-09T08:36:47.636Z,15.30
2022-11-09T08:39:14.634Z,15.50
2022-11-09T08:41:41.613Z,15.20
2022-11-09T08:44:08.478Z,15.50
2022-11-09T08:46:40.810Z,15.60
2022-11-09T08:49:08.316Z,15.40
2022-11-09T08:51:35.201Z,15.50
2022-11-09T08:54:03.340Z,15.60
2022-11-09T08:56:30.610Z,15.70
2022-11-09T08:58:57.532Z,15.80
2022-11-09T09:01:25.532Z,16.00
2022-11-09T09:03:52.586Z,16.10
2022-11-09T09:06:19.551Z,16.00
2022-11-09T09:08:46.598Z,16.00
2022-11-09T09:11:13.619Z,15.80
2022-11-09T09:13:43.521Z,15.50
2022-11-09T09:16:15.566Z,15.70
2022-11-09T09:18:42.854Z,15.80
2022-11-09T09:21:11.144Z,15.90
2022-11-09T09:23:38.157Z,16.00
2022-11-09T09:26:05.745Z,16.10
2022-11-09T09:28:33.218Z,16.40
2022-11-09T09:31:01.101Z,16.20
2022-11-09T09:33:28.684Z,16.50
2022-11-09T09:35:57.858Z,16.70
2022-11-09T09:38:28.746Z,16.90
2022-11-09T09:41:06.113Z,17.20
2022-11-09T09:43:46.351Z,17.40
2022-11-09T09:46:32.181Z,17.50
2022-11-09T09:49:12.714Z,17.50
2022-11-09T09:51:48.446Z,17.60
2022-11-09T09:54:26.100Z,17.50
2022-11-09T09:56:57.441Z,17.50
2022-11-09T09:59:36.913Z,17.30
2022-11-09T10:02:06.524Z,17.00
2022-11-09T10:04:40.208Z,17.10
2022-11-09T10:07:56.065Z,17.30
2022-11-09T10:10:52.895Z,17.00
2022-11-09T10:14:04.354Z,16.80
2022-11-09T10:17:19.192Z,16.90
2022-11-09T10:20:18.089Z,17.10
2022-11-09T10:23:21.050Z,16.90
2022-11-09T10:26:14.433Z,16.70
2022-11-09T10:29:13.793Z,16.20
2022-11-09T10:31:34.484Z,16.00
2022-11-09T10:34:26.460Z,15.90
2022-11-09T10:37:13.823Z,16.00
2022-11-09T10:39:47.199Z,16.10
2022-11-09T10:42:14.146Z,16.30
2022-11-09T10:44:41.039Z,16.40
2022-11-09T10:47:16.877Z,16.40
2022-11-09T10:49:44.774Z,16.30
2022-11-09T10:52:46.000Z,16.40
2022-11-09T10:55:25.159Z,16.30
2022-11-09T10:57:56.933Z,16.20
2022-11-09T11:00:24.085Z,16.30
2022-11-09T11:02:52.194Z,16.30
2022-11-09T11:05:28.339Z,16.40
2022-11-09T11:07:55.412Z,16.20
2022-11-09T11:10:25.340Z,16.10
2022-11-09T11:13:20.551Z,16.10
2022-11-09T11:15:48.229Z,15.90
2022-11-09T11:18:24.726Z,15.90
2022-11-09T11:21:19.741Z,16.00
2022-11-09T11:24:10.924Z,16.10
2022-11-09T11:27:10.189Z,16.20
2022-11-09T11:30:11.966Z,16.30
2022-11-09T11:32:39.137Z,16.20
2022-11-09T11:35:17.164Z,16.30
2022-11-09T11:38:27.972Z,16.40
2022-11-09T11:41:33.510Z,16.30
2022-11-09T11:44:33.739Z,16.30
2022-11-09T11:47:33.991Z,16.20
2022-11-09T11:50:30.726Z,16.20
2022-11-09T11:59:45.331Z,16.30
2022-11-09T12:09:00.975Z,15.70
2022-11-09T12:12:07.735Z,15.50
2022-11-09T12:15:01.868Z,15.40
2022-11-09T12:18:16.551Z,15.30
2022-11-09T12:21:15.873Z,15.30
2022-11-09T12:24:15.492Z,15.40
2022-11-09T12:27:31.739Z,15.40
2022-11-09T12:30:24.356Z,15.30
2022-11-09T12:33:00.558Z,15.30
2022-11-09T12:35:50.210Z,15.30
2022-11-09T12:38:42.573Z,15.30
2022-11-09T12:41:22.461Z,15.30
2022-11-09T12:44:05.095Z,15.30
2022-11-09T12:46:40.489Z,15.30
2022-11-09T12:49:30.421Z,15.30
2022-11-09T12:51:59.172Z,15.40
2022-11-09T12:54:27.229Z,15.60
2022-11-09T12:57:10.596Z,15.70
2022-11-09T12:59:50.283Z,15.80
2022-11-09T13:02:58.288Z,15.80
2022-11-09T13:20:53.460Z,15.90
2022-11-09T13:23:54.721Z,15.80
2022-11-09T13:26:55.467Z,15.70
2022-11-09T13:29:59.257Z,15.60
2022-11-09T13:32:29.657Z,15.50
2022-11-09T13:35:04.030Z,15.40
2022-11-09T13:37:53.948Z,15.40
2022-11-09T13:40:57.145Z,15.40
2022-11-09T13:43:33.702Z,15.40
2022-11-09T13:46:32.338Z,15.40
2022-11-09T13:48:59.472Z,15.40
2022-11-09T13:51:55.578Z,15.40
2022-11-09T13:54:34.691Z,15.40
2022-11-09T13:57:05.860Z,15.30
2022-11-09T13:59:53.088Z,15.30
2022-11-09T14:02:25.012Z,15.30
2022-11-09T14:04:52.448Z,15.30
2022-11-09T14:07:29.697Z,15.30
2022-11-09T14:10:30.759Z,15.30
2022-11-09T14:13:35.488Z,15.30
2022-11-09T14:16:32.432Z,15.30
2022-11-09T14:19:05.292Z,15.30
2022-11-09T14:21:50.822Z,15.50
2022-11-09T14:24:32.780Z,15.50
2022-11-09T14:27:09.148Z,15.50
2022-11-09T14:30:20.593Z,15.50
2022-11-09T14:32:50.690Z,15.30
2022-11-09T14:35:27.427Z,15.10
2022-11-09T14:37:55.901Z,15.10
2022-11-09T14:40:34.938Z,15.10
2022-11-09T14:43:28.720Z,15.10
2022-11-09T14:45:59.960Z,15.00
2022-11-09T14:48:29.028Z,14.90
2022-11-09T14:50:58.856Z,14.90
2022-11-09T14:53:30.130Z,14.80
2022-11-09T14:56:00.614Z,14.80
2022-11-09T14:58:32.695Z,14.80
2022-11-09T15:01:26.956Z,14.80
2022-11-09T15:04:20.290Z,14.80
2022-11-09T15:06:56.418Z,14.70
2022-11-09T15:09:35.924Z,14.60
2022-11-09T15:12:03.200Z,14.50
2022-11-09T15:14:35.340Z,14.50
2022-11-09T15:17:23.524Z,14.50
2022-11-09T15:19:57.345Z,14.40
2022-11-09T15:22:53.943Z,14.40
2022-11-09T15:26:04.149Z,14.40
2022-11-09T15:28:32.400Z,14.30
2022-11-09T15:31:13.448Z,14.30
2022-11-09T15:33:53.290Z,14.20
2022-11-09T15:36:30.551Z,14.10
2022-11-09T15:39:16.417Z,14.00
2022-11-09T15:41:43.546Z,13.90
2022-11-09T15:44:12.862Z,13.90
2022-11-09T15:46:50.377Z,13.80
2022-11-09T15:49:28.208Z,13.70
2022-11-09T15:51:56.392Z,13.60
2022-11-09T15:54:24.501Z,13.60
2022-11-09T15:56:52.169Z,13.60
2022-11-09T15:59:24.512Z,13.50
2022-11-09T16:01:51.865Z,13.40
2022-11-09T16:04:18.899Z,13.30
2022-11-09T16:06:47.008Z,13.20
2022-11-09T16:09:14.745Z,13.10
2022-11-09T16:11:41.987Z,13.00
2022-11-09T16:14:08.933Z,13.00
2022-11-09T16:16:35.888Z,12.90
2022-11-09T16:19:03.050Z,12.80
2022-11-09T16:21:30.097Z,12.80
2022-11-09T16:23:58.784Z,12.80
2022-11-09T16:26:26.391Z,12.70
2022-11-09T16:28:54.781Z,12.70
2022-11-09T16:31:41.160Z,12.60
2022-11-09T16:34:08.800Z,12.60
2022-11-09T16:36:38.911Z,12.60
2022-11-09T16:39:12.808Z,12.60
2022-11-09T16:41:41.526Z,12.60
2022-11-09T16:44:08.547Z,12.80
2022-11-09T16:46:35.598Z,12.70
2022-11-09T16:49:03.571Z,12.70
2022-11-09T16:51:31.149Z,12.70
2022-11-09T16:53:58.096Z,12.60
2022-11-09T16:56:25.082Z,12.50
2022-11-09T16:59:00.007Z,12.50
2022-11-09T17:01:27.026Z,12.50
2022-11-09T17:03:54.164Z,12.50
2022-11-09T17:06:21.219Z,12.50
2022-11-09T17:08:48.370Z,12.40
2022-11-09T17:11:15.650Z,12.50
2022-11-09T17:13:42.519Z,12.50
2022-11-09T17:16:12.009Z,12.40
2022-11-09T17:18:39.592Z,12.30
2022-11-09T17:21:11.966Z,12.30
2022-11-09T17:23:39.332Z,12.30
2022-11-09T17:26:08.747Z,12.20
2022-11-09T17:28:41.501Z,12.10
2022-11-09T17:31:18.949Z,12.10
2022-11-09T17:33:46.517Z,12.00
2022-11-09T17:36:15.437Z,11.90
2022-11-09T17:38:42.802Z,11.80
2022-11-09T17:41:14.805Z,11.70
2022-11-09T17:43:43.534Z,11.70
2022-11-09T17:46:20.138Z,11.70
2022-11-09T17:48:49.026Z,11.70
2022-11-09T17:51:18.034Z,11.70
2022-11-09T17:53:48.310Z,11.70
2022-11-09T17:56:15.274Z,11.80
2022-11-09T17:58:44.557Z,11.90
2022-11-09T18:01:17.330Z,11.90
2022-11-09T18:03:44.428Z,12.10
2022-11-09T18:06:17.968Z,12.10
2022-11-09T18:08:46.090Z,12.10
2022-11-09T18:11:16.353Z,12.00
2022-11-09T18:13:44.154Z,12.00
2022-11-09T18:16:17.498Z,12.10
2022-11-09T18:18:46.725Z,12.00
2022-11-09T18:21:21.897Z,12.00
2022-11-09T18:23:49.027Z,12.00
2022-11-09T18:26:16.190Z,12.00
2022-11-09T18:28:43.682Z,12.00
2022-11-09T18:31:13.027Z,12.00
2022-11-09T18:33:40.709Z,12.00
2022-11-09T18:36:15.156Z,12.00
2022-11-09T18:38:44.064Z,12.00
2022-11-09T18:41:18.819Z,12.00
2022-11-09T18:43:46.215Z,12.10
2022-11-09T18:46:15.749Z,12.00
2022-11-09T18:48:43.969Z,12.10
2022-11-09T18:51:12.341Z,12.00
2022-11-09T18:53:45.365Z,12.10
2022-11-09T18:56:23.498Z,12.10
2022-11-09T18:58:53.069Z,12.00
2022-11-09T19:01:23.108Z,12.10
2022-11-09T19:03:56.328Z,12.00
2022-11-09T19:06:26.405Z,12.00
2022-11-09T19:09:12.099Z,12.00
2022-11-09T19:11:39.134Z,12.10
2022-11-09T19:14:06.297Z,12.10
2022-11-09T19:16:33.364Z,12.00
2022-11-09T19:19:00.451Z,12.00
2022-11-09T19:21:49.162Z,12.00
2022-11-09T19:24:18.609Z,12.00
2022-11-09T19:26:50.698Z,12.00
2022-11-09T19:29:18.352Z,12.00
2022-11-09T19:31:45.941Z,12.00
2022-11-09T19:34:15.942Z,12.00
2022-11-09T19:36:43.585Z,12.00
2022-11-09T19:39:10.911Z,11.90
2022-11-09T19:41:37.817Z,11.90
2022-11-09T19:44:06.532Z,11.90
2022-11-09T19:46:35.301Z,11.90
2022-11-09T19:49:04.369Z,11.90
2022-11-09T19:51:31.984Z,11.80
2022-11-09T19:54:00.751Z,11.80
2022-11-09T19:56:29.509Z,11.80
2022-11-09T19:58:58.547Z,11.70
2022-11-09T20:01:26.033Z,11.70
2022-11-09T20:03:55.399Z,11.80
2022-11-09T20:06:23.668Z,11.80
2022-11-09T20:08:52.286Z,11.80
2022-11-09T20:11:41.296Z,11.80
2022-11-09T20:14:09.226Z,11.80
2022-11-09T20:16:37.234Z,11.80
2022-11-09T20:19:06.022Z,11.90
2022-11-09T20:21:33.004Z,11.80
2022-11-09T20:24:00.091Z,11.60
2022-11-09T20:26:27.186Z,11.60
2022-11-09T20:28:54.870Z,11.60
2022-11-09T20:31:22.705Z,11.60
2022-11-09T20:33:50.328Z,11.60
2022-11-09T20:36:18.928Z,11.60
2022-11-09T20:38:47.189Z,11.50
2022-11-09T20:41:14.439Z,11.40
2022-11-09T20:43:41.359Z,11.30
2022-11-09T20:46:15.928Z,11.40
2022-11-09T20:48:59.266Z,11.40
2022-11-09T20:51:26.818Z,11.30
2022-11-09T20:53:53.767Z,11.30
2022-11-09T20:56:21.714Z,11.30
2022-11-09T20:58:48.753Z,11.30
2022-11-09T21:01:21.928Z,11.30
2022-11-09T21:03:51.042Z,11.30
2022-11-09T21:06:19.313Z,11.30
2022-11-09T21:08:50.023Z,11.20
2022-11-09T21:11:17.738Z,11.20
2022-11-09T21:13:49.484Z,11.20
2022-11-09T21:16:18.113Z,11.20
2022-11-09T21:18:45.295Z,11.10
2022-11-09T21:21:18.421Z,11.10
2022-11-09T21:24:04.338Z,11.00
2022-11-09T21:26:50.354Z,11.00
2022-11-09T21:30:01.529Z,11.00
2022-11-09T21:32:30.695Z,11.00
2022-11-09T21:34:57.680Z,11.00
2022-11-09T21:37:24.764Z,10.90
2022-11-09T21:39:51.793Z,10.90
2022-11-09T21:42:18.926Z,10.80
2022-11-09T21:44:45.911Z,10.80
2022-11-09T21:47:13.294Z,10.90
2022-11-09T21:49:43.203Z,10.90
2022-11-09T21:52:10.184Z,10.90
2022-11-09T21:54:37.152Z,10.80
2022-11-09T21:57:04.288Z,10.80
2022-11-09T21:59:31.184Z,10.80
2022-11-09T22:01:58.208Z,10.90
2022-11-09T22:04:25.144Z,10.90
2022-11-09T22:06:52.110Z,11.00
2022-11-09T22:09:20.140Z,10.90
2022-11-09T22:12:05.523Z,10.90
2022-11-09T22:14:52.566Z,10.80
2022-11-09T22:17:19.525Z,10.80
2022-11-09T22:20:04.829Z,10.80
2022-11-09T22:22:33.651Z,10.80
2022-11-09T22:25:00.731Z,10.80
2022-11-09T22:27:30.656Z,10.70
2022-11-09T22:29:57.724Z,10.60
2022-11-09T22:32:25.086Z,10.60
2022-11-09T22:34:52.078Z,10.50
2022-11-09T22:37:19.022Z,10.50
2022-11-09T22:39:47.675Z,10.50
2022-11-09T22:42:14.878Z,10.60
2022-11-09T22:44:41.813Z,10.50
2022-11-09T22:47:10.763Z,10.50
2022-11-09T22:49:37.829Z,10.50
2022-11-09T22:52:05.465Z,10.50
2022-11-09T22:54:32.449Z,10.50
2022-11-09T22:56:59.598Z,10.40
2022-11-09T22:59:26.551Z,10.40
2022-11-09T23:01:55.711Z,10.40
2022-11-09T23:04:22.688Z,10.30
2022-11-09T23:06:49.628Z,10.30
2022-11-09T23:09:16.587Z,10.30
2022-11-09T23:11:43.555Z,10.30
2022-11-09T23:14:11.765Z,10.30
2022-11-09T23:16:38.756Z,10.30
2022-11-09T23:19:08.123Z,10.30
2022-11-09T23:21:36.915Z,10.30
2022-11-09T23:24:06.877Z,10.30
2022-11-09T23:26:34.239Z,10.30
2022-11-09T23:29:01.891Z,10.20
2022-11-09T23:31:28.841Z,10.20
2022-11-09T23:33:57.362Z,10.20
2022-11-09T23:36:26.237Z,10.20
2022-11-09T23:38:53.462Z,10.20
2022-11-09T23:41:20.928Z,10.20
2022-11-09T23:43:49.864Z,10.10
2022-11-09T23:46:18.086Z,10.10
2022-11-09T23:48:45.517Z,10.10
2022-11-09T23:51:12.871Z,10.10
2022-11-09T23:53:40.068Z,10.10
2022-11-09T23:56:11.738Z,10.10
2022-11-09T23:58:39.181Z,10.10
